Time;durP1;ratioP1;P1;durP2;ratioP2;P2;SDS_P1;SDS_P2;PMS_P1;PMS_P2;Temp;Humidity;BMP_temperature;BMP_pressure;BME280_temperature;BME280_humidity;BME280_pressure;Samples;Min_cycle;Max_cycle;Signal;HPM_P1;HPM_P2
2023/10/05 00:02:10;;;;;;;13.77;2.60;;;14.00;99.90;;;;;;4900826;29;20485;-88
2023/10/05 00:04:40;;;;;;;13.73;2.75;;;13.90;99.90;;;;;;4900588;29;20048;-88
2023/10/05 00:07:23;;;;;;;11.43;2.42;;;13.20;99.90;;;;;;4902097;29;20448;-89
2023/10/05 00:09:52;;;;;;;10.90;2.50;;;13.20;99.90;;;;;;4901607;29;20099;-89
2023/10/05 00:12:20;;;;;;;11.55;2.60;;;13.20;99.90;;;;;;4900677;29;20048;-88
2023/10/05 00:15:09;;;;;;;11.80;2.70;;;13.50;99.90;;;;;;4899062;29;20048;-89
2023/10/05 00:17:36;;;;;;;12.18;2.53;;;13.10;99.90;;;;;;4901062;29;20064;-89
2023/10/05 00:20:09;;;;;;;9.15;2.40;;;13.20;99.90;;;;;;4899966;29;20044;-89
2023/10/05 00:22:34;;;;;;;11.35;2.67;;;13.10;99.90;;;;;;4906604;29;20074;-88
2023/10/05 00:25:00;;;;;;;12.65;3.15;;;13.10;99.90;;;;;;4918294;29;20048;-88
2023/10/05 00:27:26;;;;;;;11.18;2.53;;;13.10;99.90;;;;;;4950846;29;20138;-88
2023/10/05 00:29:56;;;;;;;9.82;2.83;;;13.00;99.90;;;;;;4950352;29;20087;-89
2023/10/05 00:32:25;;;;;;;10.27;2.40;;;13.10;99.90;;;;;;4936978;29;20476;-89
2023/10/05 00:38:04;;;;;;;;;;;14.20;99.90;;;;;;4950496;29;20056;-89
2023/10/05 00:40:37;;;;;;;10.25;2.75;;;13.00;99.90;;;;;;4917290;29;19974;-89
2023/10/05 00:45:47;;;;;;;10.93;2.75;;;13.10;99.90;;;;;;4916966;29;20060;-89
2023/10/05 00:48:27;;;;;;;14.75;3.20;;;13.30;99.90;;;;;;4917114;29;20054;-89
2023/10/05 00:50:57;;;;;;;10.38;3.20;;;13.00;99.90;;;;;;4928296;29;20047;-89
2023/10/05 00:53:23;;;;;;;13.40;3.05;;;13.00;99.90;;;;;;4936934;29;20174;-89
2023/10/05 00:55:57;;;;;;;13.55;2.58;;;13.00;99.90;;;;;;4939343;29;20134;-89
2023/10/05 00:58:34;;;;;;;11.52;3.17;;;13.00;99.90;;;;;;4940387;29;20051;-89
2023/10/05 01:01:05;;;;;;;9.73;2.80;;;14.10;99.90;;;;;;4949974;28;20034;-89
2023/10/05 01:03:35;;;;;;;12.55;2.80;;;13.00;99.90;;;;;;4997291;28;20106;-89
2023/10/05 01:06:13;;;;;;;12.57;2.85;;;13.00;99.90;;;;;;4955259;29;20047;-90
2023/10/05 01:09:04;;;;;;;11.00;3.10;;;13.00;99.90;;;;;;4943042;29;20126;-89
2023/10/05 01:11:51;;;;;;;10.95;2.70;;;13.40;99.90;;;;;;4939235;29;20118;-89
2023/10/05 01:14:18;;;;;;;10.65;2.90;;;13.30;99.90;;;;;;4940295;29;20146;-89
2023/10/05 01:16:44;;;;;;;12.43;2.63;;;13.00;99.90;;;;;;4973650;28;20058;-90
2023/10/05 01:19:10;;;;;;;12.93;2.60;;;13.00;99.90;;;;;;4940213;29;20043;-90
2023/10/05 01:21:36;;;;;;;10.35;2.80;;;13.00;99.90;;;;;;4971318;28;20499;-88
2023/10/05 01:24:04;;;;;;;12.60;2.78;;;13.00;99.90;;;;;;4940107;29;20051;-89
2023/10/05 01:26:34;;;;;;;11.93;2.83;;;13.10;99.90;;;;;;4936495;29;20050;-89
2023/10/05 01:29:00;;;;;;;12.23;2.72;;;14.00;99.90;;;;;;4924173;29;20051;-89
2023/10/05 01:31:25;;;;;;;14.07;3.15;;;13.00;99.90;;;;;;4920669;29;20050;-89
2023/10/05 01:33:51;;;;;;;13.77;3.03;;;13.00;99.90;;;;;;4920886;29;20103;-89
2023/10/05 01:36:18;;;;;;;14.05;3.03;;;14.10;99.90;;;;;;4919772;29;20051;-88
2023/10/05 01:38:45;;;;;;;12.02;3.05;;;13.10;99.90;;;;;;4921263;29;20043;-89
2023/10/05 01:41:16;;;;;;;10.60;2.90;;;13.20;99.90;;;;;;4920509;29;20071;-88
2023/10/05 01:43:42;;;;;;;9.57;2.88;;;13.10;99.90;;;;;;4919550;29;20483;-89
2023/10/05 01:46:10;;;;;;;12.90;3.22;;;13.20;99.90;;;;;;4920644;29;20102;-89
2023/10/05 01:48:37;;;;;;;14.07;3.28;;;13.20;99.90;;;;;;4921109;29;20054;-89
2023/10/05 01:51:10;;;;;;;10.45;2.70;;;13.20;99.90;;;;;;4920227;29;20043;-89
2023/10/05 01:53:36;;;;;;;12.32;2.83;;;13.20;99.90;;;;;;4934824;29;20118;-89
2023/10/05 01:56:03;;;;;;;11.48;2.97;;;13.20;99.90;;;;;;4942160;29;20423;-89
2023/10/05 01:58:31;;;;;;;12.70;2.95;;;13.20;99.90;;;;;;4938692;29;20051;-89
2023/10/05 02:00:56;;;;;;;11.30;2.92;;;13.90;99.90;;;;;;4939482;29;20039;-89
2023/10/05 02:03:25;;;;;;;11.65;3.30;;;14.20;99.90;;;;;;4942187;29;20062;-89
2023/10/05 02:05:56;;;;;;;12.75;3.20;;;13.80;99.90;;;;;;4937802;29;20517;-89
2023/10/05 02:08:22;;;;;;;10.70;2.70;;;13.30;99.90;;;;;;4939608;29;20070;-90
2023/10/05 02:10:50;;;;;;;13.88;3.05;;;13.30;99.90;;;;;;4938662;29;20435;-88
2023/10/05 02:13:19;;;;;;;11.05;3.13;;;14.10;99.90;;;;;;4938793;29;20046;-89
2023/10/05 02:15:53;;;;;;;11.60;2.88;;;13.30;99.90;;;;;;4956514;28;20074;-90
2023/10/05 02:18:24;;;;;;;14.88;2.85;;;13.20;99.90;;;;;;4970559;28;20134;-89
2023/10/05 02:21:01;;;;;;;13.07;2.60;;;13.20;99.90;;;;;;4939665;29;20043;-88
2023/10/05 02:23:34;;;;;;;10.93;2.85;;;13.20;99.90;;;;;;4938313;29;20047;-89
2023/10/05 02:26:10;;;;;;;11.00;2.88;;;13.20;99.90;;;;;;4938690;29;20122;-89
2023/10/05 02:28:39;;;;;;;10.85;3.22;;;13.20;99.90;;;;;;4938983;29;20476;-89
2023/10/05 02:31:08;;;;;;;11.20;2.90;;;13.20;99.90;;;;;;4938935;29;20051;-89
2023/10/05 02:33:37;;;;;;;12.82;3.08;;;13.20;99.90;;;;;;4970451;28;20043;-90
2023/10/05 02:36:11;;;;;;;10.00;2.75;;;13.10;99.90;;;;;;4939500;29;20051;-89
2023/10/05 02:38:48;;;;;;;12.02;2.97;;;13.10;99.90;;;;;;4939113;29;20066;-89
2023/10/05 02:41:24;;;;;;;10.40;3.10;;;13.40;99.90;;;;;;4936734;29;20055;-89
2023/10/05 02:43:58;;;;;;;10.80;3.10;;;13.10;99.90;;;;;;4938673;29;20043;-89
2023/10/05 02:46:24;;;;;;;13.35;3.05;;;13.10;99.90;;;;;;4941652;29;20518;-89
2023/10/05 02:48:50;;;;;;;12.52;3.10;;;13.30;99.90;;;;;;4941301;29;20491;-89
2023/10/05 02:51:18;;;;;;;12.18;3.03;;;13.10;99.90;;;;;;4938380;29;20047;-89
2023/10/05 02:53:45;;;;;;;12.90;3.10;;;13.10;99.90;;;;;;4970039;28;20487;-89
2023/10/05 02:56:27;;;;;;;9.38;2.90;;;13.10;99.90;;;;;;4938014;29;20074;-89
2023/10/05 02:59:07;;;;;;;13.73;3.17;;;13.10;99.90;;;;;;4938673;29;20039;-89
2023/10/05 03:01:34;;;;;;;13.10;3.05;;;13.30;99.90;;;;;;4938115;29;20137;-90
2023/10/05 03:04:09;;;;;;;10.88;2.75;;;13.20;99.90;;;;;;4938553;29;20503;-90
2023/10/05 03:06:35;;;;;;;12.30;3.35;;;13.20;99.90;;;;;;4938380;29;20059;-89
2023/10/05 03:09:07;;;;;;;11.98;3.10;;;13.10;99.90;;;;;;4937827;29;20126;-90
2023/10/05 03:11:41;;;;;;;11.73;3.13;;;13.30;99.90;;;;;;4970430;28;20070;-90
2023/10/05 03:14:21;;;;;;;12.30;3.38;;;13.10;99.90;;;;;;4926601;29;20483;-89
2023/10/05 03:16:56;;;;;;;12.30;3.50;;;13.10;99.90;;;;;;4918587;29;20043;-89
2023/10/05 03:19:22;;;;;;;11.65;3.10;;;13.10;99.90;;;;;;4918770;29;20123;-89
2023/10/05 03:21:50;;;;;;;10.88;3.10;;;13.10;99.90;;;;;;4917934;29;20505;-89
2023/10/05 03:24:19;;;;;;;12.07;3.33;;;13.10;99.90;;;;;;4901672;29;20064;-88
2023/10/05 03:26:45;;;;;;;11.73;3.20;;;13.10;99.90;;;;;;4900058;29;20052;-89
2023/10/05 03:29:23;;;;;;;12.30;3.22;;;13.30;99.90;;;;;;4898022;29;20044;-90
2023/10/05 03:31:58;;;;;;;12.07;3.33;;;13.20;99.90;;;;;;4934326;29;20489;-90
2023/10/05 03:34:33;;;;;;;12.63;2.97;;;13.50;99.90;;;;;;4903186;29;20087;-89
2023/10/05 03:37:08;;;;;;;16.65;2.95;;;13.20;99.90;;;;;;4924209;29;20024;-90
2023/10/05 03:39:39;;;;;;;10.18;3.33;;;13.20;99.90;;;;;;4918834;29;20040;-90
2023/10/05 03:42:17;;;;;;;10.02;2.88;;;13.20;99.90;;;;;;4908935;29;20051;-90
2023/10/05 03:44:43;;;;;;;12.32;3.10;;;12.90;99.90;;;;;;4901543;29;20147;-89
2023/10/05 03:47:11;;;;;;;10.13;2.88;;;13.20;99.90;;;;;;4902980;29;20060;-90
2023/10/05 03:49:36;;;;;;;11.52;3.38;;;13.20;99.90;;;;;;4899544;29;20567;-90
2023/10/05 03:52:06;;;;;;;13.48;3.70;;;13.20;99.90;;;;;;4899958;29;20139;-89
2023/10/05 03:54:33;;;;;;;11.00;2.92;;;13.20;99.90;;;;;;4899873;29;20051;-89
2023/10/05 03:57:10;;;;;;;11.43;3.22;;;13.20;99.90;;;;;;4899139;29;20052;-89
2023/10/05 03:59:37;;;;;;;13.27;3.30;;;13.20;99.90;;;;;;4931414;29;20218;-89
2023/10/05 04:02:05;;;;;;;13.00;3.42;;;13.20;99.90;;;;;;4908345;29;20118;-89
2023/10/05 04:04:31;;;;;;;11.52;3.22;;;13.50;99.90;;;;;;4913751;29;20056;-89
2023/10/05 04:06:58;;;;;;;12.50;3.40;;;13.20;99.90;;;;;;4917875;29;20051;-89
2023/10/05 04:09:28;;;;;;;11.05;2.70;;;13.20;99.90;;;;;;4918051;29;20145;-89
2023/10/05 04:11:57;;;;;;;15.93;3.17;;;13.90;99.90;;;;;;4917913;29;20134;-89
2023/10/05 04:14:26;;;;;;;15.75;3.50;;;13.30;99.90;;;;;;4918165;29;20043;-89
2023/10/05 04:17:07;;;;;;;10.48;2.78;;;13.20;99.90;;;;;;4916453;29;20052;-89
2023/10/05 04:19:36;;;;;;;16.10;3.40;;;14.40;99.90;;;;;;4916905;29;20045;-89
2023/10/05 04:22:02;;;;;;;13.70;3.20;;;13.20;99.90;;;;;;4918714;28;20051;-89
2023/10/05 04:24:27;;;;;;;11.65;3.00;;;13.20;99.90;;;;;;4916052;29;20444;-89
2023/10/05 04:26:53;;;;;;;12.77;3.08;;;13.30;99.90;;;;;;4916764;29;20056;-89
2023/10/05 04:29:23;;;;;;;13.25;3.17;;;13.20;99.90;;;;;;4918711;29;20043;-89
2023/10/05 04:31:49;;;;;;;11.20;3.05;;;14.00;99.90;;;;;;4920521;29;20178;-89
2023/10/05 04:34:19;;;;;;;12.65;3.15;;;13.10;99.90;;;;;;4921006;29;20530;-89
2023/10/05 04:36:46;;;;;;;14.18;3.20;;;13.40;99.90;;;;;;4921613;29;20650;-89
2023/10/05 04:39:21;;;;;;;15.00;5.13;;;13.20;99.90;;;;;;4919982;29;20511;-89
2023/10/05 04:41:49;;;;;;;;;;;13.20;99.90;;;;;;4921372;29;20044;-89
2023/10/05 04:44:15;;;;;;;11.07;3.03;;;13.20;99.90;;;;;;4920396;29;19922;-89
2023/10/05 04:46:47;;;;;;;11.98;3.05;;;13.20;99.90;;;;;;4920211;29;20143;-89
2023/10/05 04:49:17;;;;;;;16.05;3.13;;;13.20;99.90;;;;;;4920703;29;20054;-89
2023/10/05 04:51:43;;;;;;;13.52;3.35;;;13.30;99.90;;;;;;4920856;29;20063;-89
2023/10/05 04:54:11;;;;;;;11.57;2.85;;;13.30;99.90;;;;;;4920220;29;20040;-90
2023/10/05 04:56:53;;;;;;;13.27;2.85;;;13.30;99.90;;;;;;4921361;29;20047;-89
2023/10/05 04:59:25;;;;;;;10.27;2.55;;;13.90;99.90;;;;;;4921336;29;20130;-89
2023/10/05 05:07:07;;;;;;;10.75;2.50;;;13.30;99.90;;;;;;4919799;29;20415;-89
2023/10/05 05:09:35;;;;;;;10.88;2.30;;;13.30;99.90;;;;;;4920261;29;20135;-89
2023/10/05 05:12:06;;;;;;;14.80;2.60;;;13.90;99.90;;;;;;4920481;29;20043;-89
2023/10/05 05:14:41;;;;;;;12.43;2.70;;;13.20;99.90;;;;;;4914874;29;20048;-88
2023/10/05 05:17:10;;;;;;;13.38;2.47;;;13.20;99.90;;;;;;4901740;29;20412;-89
2023/10/05 05:19:39;;;;;;;12.45;2.67;;;13.10;99.90;;;;;;4901416;29;20091;-89
2023/10/05 05:22:06;;;;;;;10.07;2.60;;;13.50;99.90;;;;;;4866410;29;1078269;-89
2023/10/05 05:24:41;;;;;;;12.85;2.60;;;13.40;99.90;;;;;;4902675;29;20067;-89
2023/10/05 05:30:00;;;;;;;12.75;2.83;;;13.10;99.90;;;;;;4902514;29;20058;-89
2023/10/05 05:32:25;;;;;;;;;;;13.00;99.90;;;;;;4903971;29;20040;-89
2023/10/05 05:35:03;;;;;;;13.57;3.10;;;13.00;99.90;;;;;;4901599;29;20391;-90
2023/10/05 05:41:15;;;;;;;11.57;2.50;;;12.80;99.90;;;;;;4917826;29;20099;-90
2023/10/05 05:43:45;;;;;;;13.48;2.70;;;13.10;99.90;;;;;;4901618;29;20090;-86
2023/10/05 05:46:17;;;;;;;12.25;3.67;;;13.10;99.90;;;;;;4901441;29;20059;-82
2023/10/05 05:48:43;;;;;;;9.40;2.70;;;12.40;99.90;;;;;;4916370;29;20397;-83
2023/10/05 05:51:14;;;;;;;11.25;2.60;;;14.10;99.90;;;;;;4932196;29;20044;-82
2023/10/05 05:53:40;;;;;;;9.85;2.72;;;13.60;99.90;;;;;;4901740;29;20048;-83
2023/10/05 05:56:06;;;;;;;12.38;3.15;;;13.20;99.90;;;;;;4901034;29;20044;-82
2023/10/05 05:58:31;;;;;;;16.52;3.20;;;14.00;99.90;;;;;;4932618;29;20044;-85
2023/10/05 06:00:57;;;;;;;14.20;2.83;;;13.20;99.90;;;;;;4901317;29;20048;-84
2023/10/05 06:03:24;;;;;;;12.15;3.50;;;13.20;99.90;;;;;;4900670;29;20135;-84
2023/10/05 06:05:51;;;;;;;11.18;2.40;;;13.20;99.90;;;;;;4901245;29;20480;-84
2023/10/05 06:08:17;;;;;;;9.10;2.63;;;13.60;99.90;;;;;;4901594;29;20091;-85
2023/10/05 06:10:46;;;;;;;10.80;2.78;;;13.30;99.90;;;;;;4900548;29;20071;-84
2023/10/05 06:13:11;;;;;;;10.85;3.30;;;13.30;99.90;;;;;;4901027;29;20083;-84
2023/10/05 06:15:41;;;;;;;15.85;2.95;;;13.30;99.90;;;;;;4901292;29;20082;-84
2023/10/05 06:18:07;;;;;;;11.00;2.95;;;13.30;99.90;;;;;;4900721;29;20055;-85
2023/10/05 06:20:33;;;;;;;10.70;2.95;;;13.60;99.90;;;;;;4901158;29;20044;-85
2023/10/05 06:23:00;;;;;;;11.57;2.95;;;13.40;99.90;;;;;;4910655;29;20055;-84
2023/10/05 06:25:25;;;;;;;14.93;2.97;;;13.40;99.90;;;;;;4918209;29;20101;-83
2023/10/05 06:27:51;;;;;;;12.20;2.70;;;13.40;99.90;;;;;;4923590;29;20043;-83
2023/10/05 06:30:17;;;;;;;12.57;2.90;;;14.10;99.90;;;;;;4936590;29;20623;-84
2023/10/05 06:32:43;;;;;;;11.32;2.90;;;13.50;99.90;;;;;;4938290;29;20051;-85
2023/10/05 06:35:11;;;;;;;12.93;2.63;;;13.50;99.90;;;;;;4940011;29;20050;-84
2023/10/05 06:37:38;;;;;;;11.00;3.10;;;13.50;99.90;;;;;;4961005;28;20047;-83
2023/10/05 06:40:21;;;;;;;11.65;2.47;;;14.00;99.90;;;;;;4944922;29;20039;-83
2023/10/05 06:42:49;;;;;;;10.27;2.70;;;13.60;99.90;;;;;;4969955;28;20055;-83
2023/10/05 06:45:15;;;;;;;10.18;2.65;;;13.60;99.90;;;;;;4937282;29;20110;-83
2023/10/05 06:47:42;;;;;;;11.48;2.72;;;13.70;99.90;;;;;;4938440;29;20055;-83
2023/10/05 06:50:08;;;;;;;13.25;3.00;;;13.70;99.90;;;;;;4938480;29;20047;-83
2023/10/05 06:52:46;;;;;;;12.88;2.80;;;13.60;99.90;;;;;;4936987;29;20047;-83
2023/10/05 06:55:14;;;;;;;12.55;2.75;;;14.60;99.90;;;;;;4938163;29;20050;-84
2023/10/05 06:57:43;;;;;;;11.70;2.53;;;13.70;99.90;;;;;;4955598;29;20043;-83
2023/10/05 07:00:16;;;;;;;10.52;2.72;;;14.80;99.90;;;;;;4954311;29;20126;-83
2023/10/05 07:02:58;;;;;;;;;;;13.70;99.90;;;;;;4938552;29;20035;-83
2023/10/05 07:05:24;;;;;;;14.55;3.10;;;14.50;99.90;;;;;;4954193;29;19965;-82
2023/10/05 07:07:50;;;;;;;11.57;3.00;;;13.80;99.90;;;;;;4937604;29;20062;-82
2023/10/05 07:10:17;;;;;;;10.02;2.63;;;14.60;99.90;;;;;;4937409;29;20043;-82
2023/10/05 07:12:46;;;;;;;11.23;2.97;;;13.90;99.90;;;;;;4938297;29;20047;-82
2023/10/05 07:15:19;;;;;;;14.52;3.50;;;13.90;99.90;;;;;;4938718;29;20115;-82
2023/10/05 07:17:45;;;;;;;10.98;2.78;;;13.90;99.90;;;;;;4938245;29;20058;-82
2023/10/05 07:20:11;;;;;;;13.32;3.22;;;14.00;99.90;;;;;;4938028;29;20114;-82
2023/10/05 07:22:41;;;;;;;10.25;2.60;;;14.00;99.90;;;;;;4934361;29;20498;-82
2023/10/05 07:25:09;;;;;;;10.30;2.97;;;14.70;99.90;;;;;;4937619;29;20095;-82
2023/10/05 07:27:35;;;;;;;11.63;3.35;;;14.10;99.90;;;;;;4936267;28;20051;-82
2023/10/05 07:30:03;;;;;;;10.88;2.90;;;15.00;99.90;;;;;;4936464;29;20066;-82
2023/10/05 07:32:30;;;;;;;12.63;3.25;;;14.10;99.90;;;;;;4936818;29;20129;-83
2023/10/05 07:34:55;;;;;;;15.25;3.45;;;14.10;99.90;;;;;;4936614;29;20530;-82
2023/10/05 07:37:21;;;;;;;11.20;2.78;;;14.10;99.90;;;;;;4937397;29;20043;-83
2023/10/05 07:39:50;;;;;;;11.60;3.38;;;14.20;99.90;;;;;;4969662;28;20048;-82
2023/10/05 07:42:17;;;;;;;10.55;2.85;;;14.10;99.90;;;;;;4936115;29;20051;-82
2023/10/05 07:44:43;;;;;;;13.52;3.08;;;14.20;99.90;;;;;;4937292;29;20059;-82
2023/10/05 07:47:12;;;;;;;11.90;2.80;;;14.20;99.90;;;;;;4936757;29;20046;-82
2023/10/05 07:49:39;;;;;;;12.13;2.70;;;14.20;99.90;;;;;;4936917;29;20069;-82
2023/10/05 07:52:09;;;;;;;10.35;3.03;;;14.80;99.90;;;;;;4937045;29;20057;-82
2023/10/05 07:54:37;;;;;;;12.15;3.33;;;14.80;99.90;;;;;;4937108;29;20416;-82
2023/10/05 07:57:04;;;;;;;13.02;3.17;;;14.30;99.90;;;;;;4936385;28;20051;-82
2023/10/05 07:59:30;;;;;;;12.75;3.10;;;14.40;99.90;;;;;;4936767;29;20070;-82
2023/10/05 08:01:57;;;;;;;10.05;3.03;;;14.40;99.90;;;;;;4961583;28;20062;-82
2023/10/05 08:04:23;;;;;;;13.00;3.22;;;14.70;99.90;;;;;;4935766;29;20047;-83
2023/10/05 08:06:50;;;;;;;13.25;3.50;;;14.50;99.90;;;;;;4937158;29;20066;-82
2023/10/05 08:09:15;;;;;;;11.65;3.30;;;14.60;99.90;;;;;;4936548;29;20378;-82
2023/10/05 08:11:44;;;;;;;12.77;3.50;;;14.60;99.90;;;;;;4936739;29;20047;-82
2023/10/05 08:14:13;;;;;;;10.73;3.58;;;14.70;99.90;;;;;;4928955;29;20046;-84
2023/10/05 08:16:39;;;;;;;15.00;3.63;;;15.10;99.90;;;;;;4936590;29;20403;-85
2023/10/05 08:19:05;;;;;;;14.75;3.63;;;14.80;99.90;;;;;;4962032;28;20043;-82
2023/10/05 08:21:31;;;;;;;11.82;3.40;;;14.80;99.90;;;;;;4936634;29;20050;-83
2023/10/05 08:23:57;;;;;;;11.40;3.28;;;15.40;99.90;;;;;;4917736;29;20052;-82
2023/10/05 08:26:24;;;;;;;15.65;3.58;;;15.40;99.90;;;;;;4930327;29;20051;-82
2023/10/05 08:28:50;;;;;;;11.60;3.20;;;15.00;99.90;;;;;;4915784;29;20059;-81
2023/10/05 08:31:22;;;;;;;13.15;3.50;;;15.00;99.90;;;;;;4915521;29;20054;-83
2023/10/05 08:33:49;;;;;;;12.10;3.30;;;15.10;99.90;;;;;;4912885;29;20162;-83
2023/10/05 08:36:17;;;;;;;10.88;2.95;;;15.10;99.90;;;;;;4933030;29;20103;-82
2023/10/05 08:38:47;;;;;;;11.52;3.17;;;15.20;99.90;;;;;;4915624;29;20052;-81
2023/10/05 08:41:35;;;;;;;14.35;3.20;;;15.20;99.90;;;;;;4913751;29;20087;-82
2023/10/05 08:44:11;;;;;;;12.00;3.47;;;15.20;99.90;;;;;;4916881;29;20055;-83
2023/10/05 08:46:42;;;;;;;10.68;3.10;;;15.30;99.90;;;;;;4911699;29;20054;-82
2023/10/05 08:49:12;;;;;;;15.10;4.22;;;15.40;99.90;;;;;;4916987;29;20035;-82
2023/10/05 08:51:39;;;;;;;13.65;2.90;;;15.50;99.90;;;;;;4917336;29;20047;-82
2023/10/05 08:54:14;;;;;;;15.48;3.58;;;15.50;99.90;;;;;;4917234;29;20088;-82
2023/10/05 08:56:42;;;;;;;13.73;3.00;;;15.50;99.90;;;;;;4934790;29;20389;-82
2023/10/05 08:59:13;;;;;;;13.10;2.97;;;15.90;99.90;;;;;;4916786;29;20051;-82
2023/10/05 09:02:00;;;;;;;11.63;3.08;;;15.70;99.90;;;;;;4916135;29;20063;-82
2023/10/05 09:04:38;;;;;;;14.65;3.28;;;15.60;99.90;;;;;;4916444;29;20063;-82
2023/10/05 09:07:09;;;;;;;14.18;3.30;;;15.80;99.90;;;;;;4916279;29;20079;-82
2023/10/05 09:09:51;;;;;;;13.23;3.15;;;15.80;99.90;;;;;;4917157;29;20059;-82
2023/10/05 09:12:34;;;;;;;11.55;3.40;;;16.20;99.90;;;;;;4917151;29;20414;-83
2023/10/05 09:15:22;;;;;;;16.00;3.17;;;15.80;99.90;;;;;;4917181;29;20495;-83
2023/10/05 09:20:31;;;;;;;9.48;2.60;;;16.10;99.90;;;;;;4935458;29;20055;-82
2023/10/05 09:23:05;;;;;;;11.38;3.08;;;16.00;99.90;;;;;;4920289;29;20056;-82
2023/10/05 09:25:44;;;;;;;11.90;3.00;;;16.00;99.90;;;;;;4920285;29;20570;-82
2023/10/05 09:28:28;;;;;;;12.73;2.90;;;16.10;99.90;;;;;;4919260;29;20061;-83
2023/10/05 09:30:59;;;;;;;13.98;3.30;;;16.10;99.90;;;;;;4920348;29;20445;-83
2023/10/05 09:33:34;;;;;;;11.68;2.92;;;16.10;99.90;;;;;;4919819;29;20052;-82
2023/10/05 09:36:22;;;;;;;12.00;3.30;;;16.10;99.90;;;;;;4918265;29;20078;-82
2023/10/05 09:38:51;;;;;;;12.20;3.03;;;16.10;99.90;;;;;;4926449;29;20044;-81
2023/10/05 09:41:19;;;;;;;15.07;3.58;;;16.10;99.90;;;;;;4934716;29;20051;-82
2023/10/05 09:43:54;;;;;;;12.02;3.20;;;16.20;99.90;;;;;;4921359;29;20412;-81
2023/10/05 09:46:22;;;;;;;10.73;3.05;;;16.20;99.90;;;;;;4903496;29;20048;-82
2023/10/05 09:48:48;;;;;;;16.30;3.55;;;15.90;99.90;;;;;;4920101;29;20044;-82
2023/10/05 09:51:14;;;;;;;12.52;3.30;;;16.20;99.90;;;;;;4919833;29;20050;-81
2023/10/05 09:53:43;;;;;;;15.65;3.40;;;16.40;99.90;;;;;;4920291;29;20206;-83
2023/10/05 09:56:12;;;;;;;12.43;3.10;;;17.10;99.90;;;;;;4919328;29;20048;-83
2023/10/05 09:58:41;;;;;;;13.20;3.15;;;16.10;99.90;;;;;;4920264;29;20054;-83
2023/10/05 10:01:13;;;;;;;14.93;3.30;;;16.00;99.90;;;;;;4935969;29;20582;-83
2023/10/05 10:03:45;;;;;;;17.75;4.63;;;16.00;99.90;;;;;;4916041;29;20072;-83
2023/10/05 10:06:14;;;;;;;13.00;3.22;;;16.00;99.90;;;;;;4900955;29;20052;-83
2023/10/05 10:09:11;;;;;;;12.93;3.45;;;16.00;99.90;;;;;;4920176;29;20047;-83
2023/10/05 10:11:36;;;;;;;15.88;3.75;;;16.70;99.90;;;;;;4919622;29;20091;-83
2023/10/05 10:14:08;;;;;;;11.93;3.10;;;16.10;99.90;;;;;;4935709;29;20039;-84
2023/10/05 10:16:34;;;;;;;19.25;3.40;;;16.00;99.90;;;;;;4919028;29;20061;-80
2023/10/05 10:19:18;;;;;;;12.55;3.03;;;16.00;99.90;;;;;;4919493;29;20051;-82
2023/10/05 10:21:47;;;;;;;15.77;3.63;;;16.00;99.90;;;;;;4918609;29;20123;-82
2023/10/05 10:24:20;;;;;;;16.55;3.60;;;16.10;99.90;;;;;;4917963;29;20162;-84
2023/10/05 10:26:53;;;;;;;12.43;3.00;;;16.10;99.90;;;;;;4918863;29;20107;-82
2023/10/05 10:29:22;;;;;;;16.42;3.80;;;16.10;99.90;;;;;;4918056;29;20498;-81
2023/10/05 10:32:19;;;;;;;12.43;3.30;;;16.20;99.90;;;;;;4914702;29;20044;-82
2023/10/05 10:34:52;;;;;;;13.45;3.00;;;16.20;99.90;;;;;;4919003;29;20504;-82
2023/10/05 10:37:42;;;;;;;15.10;3.13;;;16.20;99.90;;;;;;4917736;29;20491;-82
2023/10/05 10:40:54;;;;;;;13.32;3.60;;;16.10;99.90;;;;;;4916459;29;20103;-82
2023/10/05 10:48:59;;;;;;;13.35;3.50;;;16.40;99.90;;;;;;4918901;29;20162;-83
2023/10/05 10:51:46;;;;;;;10.35;2.92;;;16.50;99.90;;;;;;4918599;29;20052;-83
2023/10/05 10:54:28;;;;;;;12.43;3.53;;;16.60;99.90;;;;;;4917852;29;20048;-83
2023/10/05 10:56:55;;;;;;;14.30;3.85;;;16.70;99.90;;;;;;4918963;29;20106;-82
2023/10/05 10:59:34;;;;;;;12.82;3.38;;;17.20;99.90;;;;;;4950133;29;20126;-83
2023/10/05 11:02:11;;;;;;;12.95;2.80;;;16.80;99.90;;;;;;4919220;29;20039;-84
2023/10/05 11:04:39;;;;;;;12.13;3.00;;;16.70;99.90;;;;;;4919278;29;20102;-82
2023/10/05 11:07:07;;;;;;;11.25;3.00;;;16.80;99.90;;;;;;4917797;29;20219;-85
2023/10/05 11:09:52;;;;;;;12.90;3.00;;;16.80;99.90;;;;;;4918396;29;20130;-84
2023/10/05 11:12:21;;;;;;;13.02;3.15;;;16.80;99.90;;;;;;4918488;29;20047;-84
2023/10/05 11:15:14;;;;;;;13.80;2.92;;;17.00;99.90;;;;;;4916607;29;20048;-85
2023/10/05 11:17:45;;;;;;;11.57;2.95;;;16.70;99.90;;;;;;4911598;29;20052;-84
2023/10/05 11:20:25;;;;;;;13.15;2.95;;;16.60;99.90;;;;;;4930490;29;20047;-84
2023/10/05 11:23:03;;;;;;;11.13;3.13;;;16.70;99.90;;;;;;4936884;29;20064;-84
2023/10/05 11:25:32;;;;;;;13.38;3.30;;;16.70;99.90;;;;;;4918788;29;20392;-83
2023/10/05 11:27:59;;;;;;;11.90;3.08;;;16.80;99.90;;;;;;4934141;29;20130;-83
2023/10/05 11:30:47;;;;;;;12.60;3.60;;;16.90;99.90;;;;;;4969834;28;20138;-84
2023/10/05 11:33:33;;;;;;;14.38;3.60;;;16.90;99.90;;;;;;4925290;29;20048;-84
2023/10/05 11:36:17;;;;;;;13.43;3.22;;;17.90;99.90;;;;;;4915452;29;20055;-84
2023/10/05 11:38:57;;;;;;;14.88;3.50;;;17.70;99.90;;;;;;4900051;29;20060;-84
2023/10/05 11:41:39;;;;;;;11.07;3.33;;;16.90;99.90;;;;;;4914429;29;20044;-84
2023/10/05 11:44:11;;;;;;;13.43;3.65;;;16.90;99.90;;;;;;4915304;29;20664;-83
2023/10/05 11:46:45;;;;;;;9.88;3.17;;;16.60;99.90;;;;;;4915511;29;20099;-83
2023/10/05 11:49:13;;;;;;;12.93;3.78;;;16.40;99.90;;;;;;4914519;29;20104;-83
2023/10/05 11:51:42;;;;;;;16.38;3.22;;;16.20;99.90;;;;;;4915348;29;20048;-84
2023/10/05 11:54:08;;;;;;;12.68;2.75;;;16.10;99.90;;;;;;4915479;29;20048;-84
2023/10/05 11:56:34;;;;;;;11.88;3.20;;;15.50;99.90;;;;;;4914644;29;20142;-86
2023/10/05 11:59:00;;;;;;;12.50;3.13;;;16.00;99.90;;;;;;4915492;29;20076;-86
2023/10/05 12:01:32;;;;;;;10.48;2.80;;;15.30;99.90;;;;;;4922242;29;20058;-86
2023/10/05 12:03:58;;;;;;;10.85;2.80;;;14.90;99.90;;;;;;4933689;29;20480;-86
2023/10/05 12:06:28;;;;;;;12.88;3.17;;;15.10;99.90;;;;;;4924992;29;20059;-86
2023/10/05 12:09:00;;;;;;;10.27;3.20;;;14.90;99.90;;;;;;4933252;29;20058;-86
2023/10/05 12:11:26;;;;;;;13.40;3.60;;;14.80;99.90;;;;;;4934041;29;20035;-86
2023/10/05 12:13:58;;;;;;;13.38;3.95;;;14.90;99.90;;;;;;4934366;29;20043;-86
2023/10/05 12:16:39;;;;;;;12.27;3.90;;;15.50;99.90;;;;;;4933439;29;20046;-84
2023/10/05 12:19:13;;;;;;;12.20;3.08;;;15.00;99.90;;;;;;4966622;28;20079;-84
2023/10/05 12:21:44;;;;;;;12.90;3.20;;;14.80;99.90;;;;;;4934704;29;20035;-83
2023/10/05 12:24:13;;;;;;;11.63;3.10;;;14.90;99.90;;;;;;4933121;29;20091;-85
2023/10/05 12:26:42;;;;;;;11.00;3.25;;;15.00;99.90;;;;;;4940962;29;20081;-89
2023/10/05 12:29:12;;;;;;;10.35;3.15;;;14.90;99.90;;;;;;4938874;29;20047;-90
2023/10/05 12:31:42;;;;;;;12.43;2.97;;;15.50;99.90;;;;;;4934761;29;20055;-90
2023/10/05 12:34:24;;;;;;;12.07;3.20;;;15.60;99.90;;;;;;4938007;29;20573;-90
2023/10/05 12:36:51;;;;;;;11.82;3.00;;;15.80;99.90;;;;;;4933796;29;20512;-92
2023/10/05 12:39:20;;;;;;;9.75;3.22;;;15.40;99.90;;;;;;4934260;29;20040;-89
2023/10/05 12:42:03;;;;;;;12.20;3.45;;;15.60;99.90;;;;;;4965771;28;20056;-91
2023/10/05 12:44:32;;;;;;;13.90;4.32;;;15.80;99.90;;;;;;4952628;28;20047;-90
2023/10/05 12:47:17;;;;;;;12.93;3.35;;;16.80;99.90;;;;;;4936765;29;20032;-90
2023/10/05 12:49:43;;;;;;;12.27;4.45;;;16.70;99.90;;;;;;4956347;28;20040;-90
2023/10/05 12:52:08;;;;;;;12.20;3.45;;;16.50;99.90;;;;;;4920049;29;20103;-89
2023/10/05 12:54:42;;;;;;;13.18;3.35;;;16.70;99.90;;;;;;4919198;29;20040;-89
2023/10/05 13:00:39;;;;;;;14.00;3.50;;;16.80;99.90;;;;;;4916808;29;20191;-89
2023/10/05 13:03:14;;;;;;;11.27;3.67;;;16.90;99.90;;;;;;4918800;29;20056;-89
2023/10/05 13:05:51;;;;;;;15.15;3.63;;;16.90;99.90;;;;;;4917714;29;20188;-89
2023/10/05 13:08:17;;;;;;;13.48;3.47;;;16.80;99.90;;;;;;4949672;29;20436;-89
2023/10/05 13:11:11;;;;;;;10.80;3.20;;;16.90;99.90;;;;;;4949972;29;20199;-90
2023/10/05 13:13:39;;;;;;;16.63;3.58;;;16.90;99.90;;;;;;4917293;29;20060;-89
2023/10/05 13:16:14;;;;;;;13.35;3.50;;;17.20;99.90;;;;;;4950308;29;20099;-89
2023/10/05 13:18:43;;;;;;;12.98;3.30;;;17.30;99.90;;;;;;4918330;29;20052;-89
2023/10/05 13:21:14;;;;;;;14.45;3.22;;;17.50;99.90;;;;;;4923507;29;20032;-89
2023/10/05 13:23:57;;;;;;;13.38;3.00;;;18.30;99.90;;;;;;4924300;29;20055;-90
2023/10/05 13:26:44;;;;;;;8.65;2.80;;;18.00;99.90;;;;;;4920437;29;20055;-89
2023/10/05 13:29:28;;;;;;;11.52;2.60;;;18.10;99.90;;;;;;4920935;29;20048;-90